Time;durP1;ratioP1;P1;durP2;ratioP2;P2;SDS_P1;SDS_P2;PMS_P1;PMS_P2;Temp;Humidity;BMP_temperature;BMP_pressure;BME280_temperature;BME280_humidity;BME280_pressure;Samples;Min_cycle;Max_cycle;Signal;HPM_P1;HPM_P2
2023/05/03 00:00:01;;;;;;;5.20;3.30;;;;;;;13.42;41.14;101552.24;108092;1284;21992;-59
2023/05/03 00:02:27;;;;;;;4.90;2.60;;;;;;;13.39;41.23;101551.70;108045;1285;21968;-59
2023/05/03 00:04:53;;;;;;;6.60;2.80;;;;;;;13.35;41.04;101549.77;108049;1285;21988;-59
2023/05/03 06:20:26;;;;;;;6.80;3.70;;;;;;;21.29;36.40;101621.70;107924;1289;23128;-59
2023/05/03 06:22:52;;;;;;;6.10;2.00;;;;;;;21.34;36.43;101622.56;107980;1289;21990;-60
2023/05/03 06:25:18;;;;;;;4.20;1.30;;;;;;;21.33;35.62;101623.14;107984;1287;21999;-60
2023/05/03 06:27:43;;;;;;;3.90;1.50;;;;;;;21.44;35.74;101625.02;107967;1289;22047;-60
2023/05/03 06:30:10;;;;;;;3.30;1.80;;;;;;;21.56;35.74;101623.69;107996;1289;22046;-60
2023/05/03 06:32:39;;;;;;;5.20;2.20;;;;;;;21.68;35.45;101622.91;108094;1289;21994;-60
2023/05/03 06:35:05;;;;;;;4.70;1.50;;;;;;;21.74;35.35;101621.97;108010;1289;21987;-60
2023/05/03 06:37:31;;;;;;;3.00;1.60;;;;;;;21.80;35.27;101616.90;107738;1289;22457;-61
2023/05/03 06:39:56;;;;;;;3.10;1.40;;;;;;;21.91;35.31;101614.83;108012;1289;21996;-61
2023/05/03 06:42:22;;;;;;;4.00;1.30;;;;;;;22.05;35.20;101612.51;107841;1289;21998;-61
2023/05/03 06:44:48;;;;;;;3.80;1.30;;;;;;;22.17;34.81;101610.59;107891;1289;22008;-60
2023/05/03 06:47:14;;;;;;;5.40;1.70;;;;;;;22.14;34.39;101609.84;107837;1289;22237;-61
2023/05/03 06:49:40;;;;;;;4.10;1.50;;;;;;;22.18;33.80;101611.06;107905;1289;21990;-60
2023/05/03 06:52:06;;;;;;;11.30;1.40;;;;;;;22.38;34.03;101612.91;107845;1289;21990;-61
2023/05/03 06:54:32;;;;;;;3.00;1.40;;;;;;;22.54;33.82;101612.27;107901;1289;24468;-61
2023/05/03 06:56:57;;;;;;;4.70;1.70;;;;;;;22.63;33.71;101609.38;107906;1289;21993;-61
2023/05/03 06:59:23;;;;;;;4.20;1.20;;;;;;;22.74;33.88;101608.90;107825;1289;22024;-61
2023/05/03 07:01:50;;;;;;;4.80;1.40;;;;;;;22.84;33.39;101610.25;107892;1289;22026;-61
2023/05/03 07:04:15;;;;;;;3.70;1.70;;;;;;;22.96;33.55;101611.33;107888;1289;21990;-61
2023/05/03 07:06:41;;;;;;;3.90;1.30;;;;;;;23.05;33.76;101610.05;107819;1286;21989;-60
2023/05/03 07:09:07;;;;;;;3.00;1.50;;;;;;;23.21;33.67;101611.67;107855;1286;21991;-60
2023/05/03 07:11:35;;;;;;;3.00;1.60;;;;;;;23.38;32.60;101612.16;107868;1288;21999;-60
2023/05/03 07:14:01;;;;;;;3.90;1.70;;;;;;;23.50;32.55;101617.34;107850;1289;21998;-60
2023/05/03 07:16:27;;;;;;;7.30;1.20;;;;;;;23.65;32.46;101618.06;107847;1289;22000;-60
2023/05/03 07:18:53;;;;;;;2.20;1.40;;;;;;;23.81;32.92;101618.20;107820;1289;21990;-60
2023/05/03 07:21:19;;;;;;;5.10;1.60;;;;;;;23.98;32.80;101619.70;107929;1289;21990;-61
2023/05/03 07:23:45;;;;;;;3.60;1.50;;;;;;;24.20;32.86;101617.56;107858;1289;23616;-61
2023/05/03 07:26:10;;;;;;;3.50;1.60;;;;;;;24.34;32.45;101615.60;107958;1289;23615;-61
2023/05/03 07:28:36;;;;;;;4.80;1.20;;;;;;;24.44;32.13;101617.31;107851;1289;22007;-60
2023/05/03 07:31:03;;;;;;;7.40;1.60;;;;;;;24.47;32.03;101616.96;107956;1286;21989;-62
2023/05/03 07:33:30;;;;;;;4.80;1.60;;;;;;;24.48;31.58;101617.23;107900;1289;22455;-61
2023/05/03 07:35:58;;;;;;;5.00;1.60;;;;;;;24.54;31.72;101615.32;107947;1286;21997;-60
2023/05/03 07:38:24;;;;;;;3.10;1.20;;;;;;;24.65;31.66;101616.17;108051;1289;22007;-60
2023/05/03 07:40:50;;;;;;;3.60;1.40;;;;;;;24.79;31.40;101616.23;107816;1285;21999;-62
2023/05/03 07:43:17;;;;;;;3.90;1.70;;;;;;;24.92;31.60;101618.92;107747;1290;22003;-61
2023/05/03 07:45:43;;;;;;;3.10;1.40;;;;;;;24.99;30.93;101617.13;107839;1290;22043;-62
2023/05/03 07:48:09;;;;;;;2.80;1.60;;;;;;;25.00;30.73;101615.62;107785;1289;23706;-60
2023/05/03 07:50:34;;;;;;;3.20;1.20;;;;;;;25.11;31.03;101616.67;107847;1290;21993;-63
2023/05/03 07:53:00;;;;;;;3.40;1.40;;;;;;;25.24;31.19;101617.04;107874;1290;22461;-60
2023/05/03 07:55:31;;;;;;;4.60;1.40;;;;;;;25.50;31.28;101613.31;107894;1290;22069;-62
2023/05/03 07:57:58;;;;;;;4.50;1.40;;;;;;;25.80;30.87;101611.61;107934;1290;21996;-62
2023/05/03 08:00:25;;;;;;;3.70;1.30;;;;;;;25.96;31.09;101605.88;107938;1289;23497;-60
2023/05/03 08:02:50;;;;;;;6.20;1.30;;;;;;;25.96;29.75;101606.23;107967;1289;22083;-61
2023/05/03 08:05:16;;;;;;;3.10;1.50;;;;;;;25.92;29.50;101609.34;107939;1289;22008;-61
2023/05/03 08:07:43;;;;;;;4.20;1.30;;;;;;;26.00;30.26;101608.86;107852;1289;21996;-60
2023/05/03 08:10:09;;;;;;;2.70;1.20;;;;;;;26.02;29.51;101604.27;107866;1289;21987;-60
2023/05/03 08:12:35;;;;;;;5.60;1.40;;;;;;;26.02;29.66;101605.16;107998;1289;22000;-62
2023/05/03 08:15:03;;;;;;;4.00;1.20;;;;;;;26.11;29.78;101607.35;107943;1289;23625;-63
2023/05/03 08:17:30;;;;;;;5.00;1.20;;;;;;;26.24;29.92;101609.11;107787;1289;22623;-60
2023/05/03 08:19:56;;;;;;;4.10;1.30;;;;;;;26.36;29.53;101609.31;107878;1289;22494;-61
2023/05/03 08:22:24;;;;;;;5.60;1.10;;;;;;;26.38;29.00;101613.02;107819;1290;21993;-59
2023/05/03 08:24:51;;;;;;;10.50;1.60;;;;;;;26.32;28.52;101614.08;107841;1290;21988;-58
2023/05/03 08:27:17;;;;;;;4.20;1.30;;;;;;;26.31;28.92;101607.12;107816;1290;21992;-58
2023/05/03 08:29:42;;;;;;;4.80;1.20;;;;;;;26.35;28.47;101607.61;107815;1283;21992;-62
2023/05/03 08:32:09;;;;;;;5.20;1.60;;;;;;;26.56;29.00;101610.48;107796;1290;22003;-61
2023/05/03 08:34:35;;;;;;;4.90;1.30;;;;;;;26.65;28.46;101612.64;107867;1289;21988;-59
2023/05/03 08:37:02;;;;;;;2.90;1.30;;;;;;;26.65;28.53;101610.66;108043;1289;21995;-60
2023/05/03 08:39:30;;;;;;;2.50;1.20;;;;;;;26.68;28.61;101611.17;108006;1289;21994;-59
2023/05/03 08:41:55;;;;;;;2.10;0.90;;;;;;;26.80;28.69;101611.74;107978;1289;21994;-59
2023/05/03 08:44:22;;;;;;;4.90;1.30;;;;;;;26.91;28.69;101611.64;107919;1289;21993;-60
2023/05/03 08:46:50;;;;;;;2.60;1.10;;;;;;;26.86;28.08;101606.14;107921;1289;21986;-59
2023/05/03 08:49:16;;;;;;;4.40;1.60;;;;;;;27.04;28.31;101605.63;107733;1289;22031;-60
2023/05/03 08:51:46;;;;;;;5.00;1.20;;;;;;;27.25;28.46;101602.34;107944;1289;21993;-60
2023/05/03 08:54:13;;;;;;;3.00;1.00;;;;;;;27.31;27.75;101597.09;108098;1289;23832;-59
2023/05/03 08:56:40;;;;;;;4.60;1.20;;;;;;;27.36;27.59;101601.98;108014;1289;21992;-62
2023/05/03 08:59:07;;;;;;;7.20;1.40;;;;;;;27.44;27.47;101598.77;108061;1289;21998;-63
2023/05/03 09:01:35;;;;;;;3.40;1.50;;;;;;;27.29;27.03;101594.65;107995;1289;21985;-61
2023/05/03 09:04:02;;;;;;;3.80;1.40;;;;;;;27.18;27.04;101590.47;108023;1289;21969;-63
2023/05/03 09:06:27;;;;;;;3.80;1.10;;;;;;;27.14;26.98;101589.45;107944;1289;21994;-63
2023/05/03 09:08:53;;;;;;;3.20;1.20;;;;;;;27.16;26.92;101582.89;108015;1289;22053;-61
2023/05/03 09:11:31;;;;;;;6.30;1.10;;;;;;;27.15;26.94;101578.97;108041;1289;21990;-63
2023/05/03 09:14:17;;;;;;;4.20;0.90;;;;;;;27.26;27.49;101579.31;108019;1289;22235;-60
2023/05/03 09:16:44;;;;;;;3.80;1.00;;;;;;;27.51;27.43;101577.96;107942;1289;21992;-60
2023/05/03 09:19:11;;;;;;;7.30;1.30;;;;;;;27.70;27.44;101572.38;107983;1289;23625;-64
2023/05/03 09:21:38;;;;;;;1.80;1.10;;;;;;;27.83;26.66;101576.08;107998;1289;22013;-61
2023/05/03 09:24:19;;;;;;;6.20;1.60;;;;;;;27.87;26.12;101571.13;107988;1289;22003;-62
2023/05/03 09:26:47;;;;;;;4.20;1.30;;;;;;;27.83;26.17;101570.14;107706;1289;21990;-63
2023/05/03 09:29:39;;;;;;;6.10;1.00;;;;;;;27.92;27.10;101569.15;108041;1289;21993;-60
2023/05/03 09:32:05;;;;;;;2.90;1.40;;;;;;;28.11;27.01;101571.00;107964;1289;22012;-64
2023/05/03 09:34:32;;;;;;;7.10;1.20;;;;;;;28.26;26.97;101575.38;107969;1289;23728;-60
2023/05/03 09:36:58;;;;;;;5.60;1.40;;;;;;;28.31;26.51;101575.56;108002;1289;21986;-64
2023/05/03 09:39:24;;;;;;;4.10;1.10;;;;;;;28.29;26.31;101575.20;107952;1289;21998;-60
2023/05/03 09:41:50;;;;;;;2.30;1.00;;;;;;;28.42;26.45;101572.13;108011;1289;21989;-60
2023/05/03 09:44:16;;;;;;;4.20;1.00;;;;;;;28.53;26.41;101565.97;107826;1290;22002;-64
2023/05/03 09:47:04;;;;;;;3.90;1.10;;;;;;;28.61;25.93;101569.19;107904;1289;22172;-64
2023/05/03 09:49:32;;;;;;;6.90;1.50;;;;;;;28.53;25.61;101570.29;107986;1289;22013;-61
2023/05/03 09:52:01;;;;;;;4.50;1.20;;;;;;;28.46;25.99;101573.83;108053;1289;21987;-64
2023/05/03 09:54:30;;;;;;;3.50;1.70;;;;;;;28.37;25.97;101572.80;108025;1289;21992;-65
2023/05/03 09:56:56;;;;;;;4.50;1.60;;;;;;;28.25;25.93;101568.27;108011;1289;21994;-65
2023/05/03 09:59:22;;;;;;;2.60;1.00;;;;;;;28.22;25.92;101568.10;108038;1289;23654;-60
2023/05/03 10:01:50;;;;;;;7.50;1.50;;;;;;;28.26;25.85;101568.91;107961;1289;21989;-61
2023/05/03 10:04:18;;;;;;;4.10;1.20;;;;;;;28.32;25.94;101570.25;107986;1289;21985;-60
2023/05/03 10:06:44;;;;;;;3.40;1.40;;;;;;;28.40;25.62;101572.42;108066;1286;22027;-64
2023/05/03 10:09:15;;;;;;;2.20;1.20;;;;;;;28.44;25.64;101566.38;108057;1289;21990;-64
2023/05/03 10:11:44;;;;;;;4.30;1.20;;;;;;;28.35;25.25;101568.61;108015;1289;21988;-65
2023/05/03 10:14:10;;;;;;;5.80;1.30;;;;;;;28.24;25.46;101562.90;107242;1289;1002486;-64
2023/05/03 10:16:37;;;;;;;3.10;1.00;;;;;;;28.27;25.87;101564.13;107778;1289;22004;-60
2023/05/03 10:19:10;;;;;;;2.70;1.30;;;;;;;28.26;25.50;101569.06;107997;1289;22011;-65
2023/05/03 10:22:03;;;;;;;1.50;0.90;;;;;;;28.07;25.35;101565.66;107975;1289;21985;-61
2023/05/03 10:24:29;;;;;;;2.60;1.10;;;;;;;28.02;25.29;101571.91;107879;1289;22113;-60
2023/05/03 10:26:55;;;;;;;3.00;1.20;;;;;;;28.14;25.74;101568.06;108003;1289;21997;-61
2023/05/03 10:29:36;;;;;;;2.20;1.20;;;;;;;28.35;26.45;101566.31;107990;1289;21990;-61
2023/05/03 10:32:25;;;;;;;3.40;1.60;;;;;;;28.58;26.15;101559.48;108006;1289;21999;-62
2023/05/03 10:35:15;;;;;;;4.10;1.10;;;;;;;28.70;25.76;101563.52;107968;1289;22011;-60
2023/05/03 10:37:41;;;;;;;2.70;1.10;;;;;;;28.85;25.06;101562.46;107973;1287;22045;-61
2023/05/03 10:40:12;;;;;;;2.20;1.10;;;;;;;28.78;24.50;101556.50;108030;1288;22003;-60
2023/05/03 10:42:39;;;;;;;4.90;1.70;;;;;;;28.64;25.15;101563.56;108087;1289;21995;-60
2023/05/03 10:45:08;;;;;;;2.30;1.20;;;;;;;28.70;25.79;101559.87;108078;1289;21996;-65
2023/05/03 10:47:34;;;;;;;3.00;1.20;;;;;;;28.96;26.04;101560.43;108090;1289;22028;-61
2023/05/03 10:50:15;;;;;;;5.20;1.30;;;;;;;29.16;25.34;101564.23;108085;1289;23051;-61
2023/05/03 10:52:41;;;;;;;2.50;1.00;;;;;;;28.91;24.55;101559.40;108077;1288;22025;-60
2023/05/03 10:55:20;;;;;;;3.80;1.60;;;;;;;28.81;25.12;101566.54;108044;1289;21983;-65
2023/05/03 10:57:47;;;;;;;4.40;1.30;;;;;;;28.75;24.72;101566.46;108137;1289;21997;-60
2023/05/03 11:00:37;;;;;;;2.00;1.00;;;;;;;28.64;24.10;101562.70;108061;1289;22006;-65
2023/05/03 11:03:18;;;;;;;3.50;1.10;;;;;;;28.38;23.53;101559.38;107961;1289;21968;-65
2023/05/03 11:05:44;;;;;;;3.50;0.80;;;;;;;28.09;23.99;101557.21;108075;1287;21987;-65
2023/05/03 11:08:15;;;;;;;3.00;1.10;;;;;;;28.10;24.14;101562.40;108066;1289;21983;-62
2023/05/03 11:10:41;;;;;;;3.60;1.10;;;;;;;28.12;24.27;101562.98;108093;1289;22167;-65
2023/05/03 11:13:07;;;;;;;4.10;1.20;;;;;;;28.19;24.52;101561.05;107826;1289;21992;-61
2023/05/03 11:15:33;;;;;;;3.60;0.90;;;;;;;28.22;23.96;101564.85;108074;1288;21995;-65
2023/05/03 11:17:59;;;;;;;2.00;1.20;;;;;;;28.18;23.90;101557.87;108066;1287;22003;-60
2023/05/03 11:20:24;;;;;;;1.80;1.00;;;;;;;28.08;23.83;101557.80;108094;1289;21994;-64
2023/05/03 11:22:51;;;;;;;3.10;1.30;;;;;;;28.26;24.43;101553.20;108067;1289;23625;-65
2023/05/03 11:25:17;;;;;;;4.70;1.20;;;;;;;28.33;24.10;101550.89;107868;1287;21989;-64
2023/05/03 11:27:45;;;;;;;3.90;0.90;;;;;;;28.26;24.20;101550.98;108112;1289;21992;-65
2023/05/03 11:30:12;;;;;;;2.70;1.40;;;;;;;28.36;23.90;101549.44;108102;1289;21998;-61
2023/05/03 11:32:38;;;;;;;2.40;1.00;;;;;;;28.16;23.80;101551.69;108091;1289;22179;-61
2023/05/03 11:35:06;;;;;;;2.50;1.20;;;;;;;28.30;24.84;101545.01;107905;1289;22078;-61
2023/05/03 11:37:32;;;;;;;3.00;1.10;;;;;;;28.29;23.68;101545.59;108148;1289;22932;-65
2023/05/03 11:39:58;;;;;;;2.80;1.20;;;;;;;28.21;23.50;101543.41;108127;1289;21993;-60
2023/05/03 11:42:25;;;;;;;6.30;1.40;;;;;;;28.20;24.04;101543.34;108049;1289;22025;-64
2023/05/03 11:44:51;;;;;;;9.10;1.90;;;;;;;28.24;24.12;101541.61;108124;1289;22021;-61
2023/05/03 11:47:17;;;;;;;4.10;1.10;;;;;;;28.25;23.92;101535.00;107860;1289;21993;-60
2023/05/03 11:49:55;;;;;;;3.10;1.30;;;;;;;28.28;24.25;101535.74;108077;1284;22000;-60
2023/05/03 11:52:26;;;;;;;3.70;1.30;;;;;;;28.47;24.00;101538.36;108061;1289;21986;-64
2023/05/03 11:54:52;;;;;;;6.40;0.90;;;;;;;28.30;23.73;101539.58;108109;1289;22004;-60
2023/05/03 11:57:17;;;;;;;3.30;1.30;;;;;;;28.18;24.11;101532.62;108104;1288;21983;-61
2023/05/03 11:59:43;;;;;;;6.80;1.30;;;;;;;28.31;24.38;101530.81;108107;1289;21992;-65
2023/05/03 12:02:11;;;;;;;2.70;1.10;;;;;;;28.24;23.41;101532.38;108057;1289;21997;-62
2023/05/03 12:04:40;;;;;;;7.20;1.20;;;;;;;28.19;24.09;101526.95;108094;1289;21991;-60
2023/05/03 12:07:07;;;;;;;6.50;1.20;;;;;;;28.27;23.82;101528.41;108111;1289;21987;-60
2023/05/03 12:09:34;;;;;;;4.70;1.20;;;;;;;28.29;23.81;101524.64;108096;1289;21993;-65
2023/05/03 12:12:01;;;;;;;3.00;1.00;;;;;;;28.29;23.63;101521.05;108105;1289;21983;-60
2023/05/03 12:14:27;;;;;;;2.50;1.10;;;;;;;28.23;23.58;101516.99;108101;1289;21996;-60
2023/05/03 12:16:54;;;;;;;3.20;1.10;;;;;;;28.02;23.06;101516.38;108107;1289;21992;-60
2023/05/03 12:19:26;;;;;;;2.30;0.90;;;;;;;28.14;23.66;101511.64;108066;1289;21989;-60
2023/05/03 12:21:52;;;;;;;5.80;1.10;;;;;;;28.20;23.71;101508.64;108049;1288;21994;-65
2023/05/03 12:24:18;;;;;;;9.00;1.20;;;;;;;28.09;23.20;101502.19;108044;1289;22266;-61
2023/05/03 12:26:44;;;;;;;8.60;1.50;;;;;;;27.81;23.43;101497.02;108075;1289;21994;-61
2023/05/03 12:29:11;;;;;;;3.50;1.10;;;;;;;27.90;23.62;101498.04;108074;1289;22628;-60
2023/05/03 12:31:38;;;;;;;5.30;2.00;;;;;;;27.97;23.49;101493.45;108081;1289;21980;-60
2023/05/03 12:34:03;;;;;;;5.50;1.00;;;;;;;28.13;23.70;101492.17;108116;1289;22024;-64
2023/05/03 12:36:33;;;;;;;4.70;1.10;;;;;;;28.14;22.94;101494.45;108067;1289;21994;-62
2023/05/03 12:38:59;;;;;;;3.30;1.00;;;;;;;28.00;23.08;101498.30;108147;1289;21995;-64
2023/05/03 12:41:28;;;;;;;3.80;1.00;;;;;;;28.04;23.51;101492.08;108085;1289;22000;-63
2023/05/03 12:43:55;;;;;;;4.90;1.30;;;;;;;28.11;23.18;101492.11;108077;1289;23612;-58
2023/05/03 12:46:22;;;;;;;3.50;1.10;;;;;;;27.79;22.47;101497.14;108072;1289;21995;-63
2023/05/03 12:48:49;;;;;;;3.00;1.20;;;;;;;27.60;23.02;101489.79;108100;1289;21991;-63
2023/05/03 12:51:15;;;;;;;1.70;1.00;;;;;;;27.69;23.36;101488.62;108118;1288;22070;-63
2023/05/03 12:53:41;;;;;;;2.60;0.80;;;;;;;27.83;23.60;101489.52;108074;1289;21992;-64
2023/05/03 12:56:07;;;;;;;2.10;0.90;;;;;;;27.99;23.30;101488.47;108041;1289;22003;-64
2023/05/03 12:58:33;;;;;;;3.10;1.00;;;;;;;27.96;23.16;101488.11;107812;1289;22006;-63
2023/05/03 13:00:58;;;;;;;6.50;1.10;;;;;;;27.89;22.81;101488.18;108034;1289;23633;-64
2023/05/03 13:03:24;;;;;;;3.80;1.00;;;;;;;27.62;22.59;101486.76;108025;1289;22029;-59
2023/05/03 13:05:50;;;;;;;3.20;0.90;;;;;;;27.47;22.71;101483.95;108057;1289;21989;-60
2023/05/03 13:08:16;;;;;;;3.00;0.80;;;;;;;27.25;22.54;101486.30;108059;1289;21989;-63
2023/05/03 13:10:42;;;;;;;1.70;0.80;;;;;;;27.10;22.70;101489.76;108051;1289;21952;-59
2023/05/03 13:13:10;;;;;;;2.20;1.20;;;;;;;27.24;23.21;101481.27;107258;1289;1094896;-64
2023/05/03 13:15:36;;;;;;;2.80;1.00;;;;;;;27.41;23.22;101478.98;107973;1288;21998;-64
2023/05/03 13:18:05;;;;;;;2.80;1.10;;;;;;;27.30;22.92;101479.81;107981;1287;21990;-60
2023/05/03 13:20:33;;;;;;;1.80;1.00;;;;;;;27.24;23.02;101480.38;108126;1289;21988;-64
2023/05/03 13:22:59;;;;;;;1.40;0.80;;;;;;;27.28;23.08;101475.25;107844;1289;21997;-60
2023/05/03 13:25:25;;;;;;;4.20;1.00;;;;;;;27.31;23.04;101475.25;108076;1289;21998;-64
2023/05/03 13:27:52;;;;;;;2.10;0.70;;;;;;;27.31;23.25;101472.05;108081;1289;23747;-63
2023/05/03 13:30:22;;;;;;;16.40;1.30;;;;;;;27.34;23.29;101470.75;108141;1289;21989;-60
2023/05/03 13:32:49;;;;;;;1.90;0.80;;;;;;;27.37;23.05;101468.95;108065;1289;21993;-59
2023/05/03 13:35:16;;;;;;;3.00;0.70;;;;;;;27.23;22.89;101470.61;108088;1289;21987;-64
2023/05/03 13:37:42;;;;;;;3.20;1.20;;;;;;;27.01;23.15;101469.61;108032;1289;22050;-60
2023/05/03 13:40:09;;;;;;;1.60;0.90;;;;;;;27.03;23.49;101469.17;108060;1289;22046;-64
2023/05/03 13:42:35;;;;;;;2.00;0.80;;;;;;;27.12;23.41;101469.86;108046;1289;21999;-64
2023/05/03 13:45:01;;;;;;;4.90;1.20;;;;;;;27.03;23.44;101470.20;108071;1289;21997;-64
2023/05/03 13:47:27;;;;;;;3.60;1.10;;;;;;;26.97;23.47;101471.67;108047;1289;21990;-63
2023/05/03 13:49:56;;;;;;;4.10;1.10;;;;;;;27.05;23.70;101475.18;108095;1289;22003;-59
2023/05/03 13:52:22;;;;;;;3.10;0.90;;;;;;;27.05;23.41;101476.80;108052;1289;21989;-64
2023/05/03 13:54:48;;;;;;;2.40;0.90;;;;;;;26.89;23.62;101474.33;108106;1289;21990;-63
2023/05/03 13:57:14;;;;;;;4.70;1.20;;;;;;;26.81;23.66;101473.98;108144;1289;22031;-64
2023/05/03 13:59:40;;;;;;;3.20;1.10;;;;;;;26.71;23.47;101473.13;108054;1289;22045;-64
2023/05/03 14:02:06;;;;;;;2.80;1.10;;;;;;;26.77;24.03;101467.69;108061;1289;21987;-64
2023/05/03 14:04:32;;;;;;;5.30;1.20;;;;;;;26.95;23.94;101464.08;108084;1289;21986;-63
2023/05/03 14:07:01;;;;;;;16.10;1.50;;;;;;;27.01;23.93;101461.55;108039;1289;21999;-59
2023/05/03 14:09:28;;;;;;;3.40;0.90;;;;;;;27.10;24.33;101455.75;108081;1289;23725;-64
2023/05/03 14:11:54;;;;;;;2.60;0.90;;;;;;;27.13;23.96;101459.50;108103;1289;21994;-66
2023/05/03 14:14:25;;;;;;;2.50;1.00;;;;;;;26.84;23.83;101462.94;108117;1289;21990;-60
2023/05/03 14:16:51;;;;;;;3.70;1.10;;;;;;;26.62;24.26;101460.58;108089;1289;22000;-60
2023/05/03 14:19:17;;;;;;;3.70;1.10;;;;;;;26.64;24.76;101459.36;108039;1289;22027;-59
2023/05/03 14:21:44;;;;;;;2.30;1.10;;;;;;;26.84;24.34;101459.20;108127;1289;21988;-64
2023/05/03 14:24:09;;;;;;;4.20;1.00;;;;;;;26.94;24.22;101457.65;108057;1289;22005;-62
2023/05/03 14:26:36;;;;;;;10.60;1.90;;;;;;;27.03;24.22;101459.61;107285;1289;1004124;-64
2023/05/03 14:29:01;;;;;;;4.40;1.30;;;;;;;27.01;23.96;101463.52;108092;1289;21989;-60
2023/05/03 14:31:27;;;;;;;2.70;0.90;;;;;;;26.97;24.07;101460.92;108078;1289;21992;-66
2023/05/03 14:33:53;;;;;;;3.50;0.90;;;;;;;26.91;23.89;101460.91;108053;1289;21989;-65
2023/05/03 14:36:19;;;;;;;3.30;1.10;;;;;;;26.92;24.13;101460.67;108058;1289;23491;-64
2023/05/03 14:38:45;;;;;;;2.30;1.00;;;;;;;26.97;24.50;101457.85;108044;1289;21996;-64
2023/05/03 14:41:11;;;;;;;2.40;1.20;;;;;;;26.95;24.14;101456.85;108025;1289;21992;-62
2023/05/03 14:43:38;;;;;;;2.30;1.10;;;;;;;26.89;23.82;101457.83;108020;1289;21994;-59
2023/05/03 14:46:04;;;;;;;5.80;1.30;;;;;;;26.74;23.88;101451.73;108095;1289;21991;-65
2023/05/03 14:48:30;;;;;;;1.60;0.80;;;;;;;26.66;24.41;101454.21;108033;1289;21994;-61
2023/05/03 14:50:56;;;;;;;5.30;1.00;;;;;;;26.52;24.37;101455.04;106538;1289;1002596;-61
2023/05/03 14:53:22;;;;;;;3.10;1.10;;;;;;;26.20;24.65;101459.17;108074;1289;21990;-62
2023/05/03 14:55:48;;;;;;;2.70;0.90;;;;;;;25.89;24.83;101454.53;108065;1289;21993;-58
2023/05/03 14:58:13;;;;;;;5.10;0.90;;;;;;;25.63;24.94;101455.92;107991;1289;21989;-63
2023/05/03 15:00:39;;;;;;;5.70;1.40;;;;;;;25.22;25.11;101453.34;108005;1287;21984;-63
2023/05/03 15:03:10;;;;;;;2.20;1.00;;;;;;;24.86;25.20;101452.85;107943;1289;21989;-58
2023/05/03 15:06:02;;;;;;;;;;;;;;;24.73;25.49;101455.38;107981;1289;21967;-59
2023/05/03 15:08:28;;;;;;;4.80;1.30;;;;;;;24.43;25.25;101457.51;107973;1289;21988;-64
2023/05/03 15:10:53;;;;;;;2.10;1.00;;;;;;;24.18;25.13;101457.20;107995;1289;21989;-63
2023/05/03 15:13:19;;;;;;;2.20;1.10;;;;;;;24.16;25.32;101463.91;107992;1289;21992;-63
2023/05/03 15:15:45;;;;;;;2.10;1.20;;;;;;;24.05;25.47;101465.05;107871;1286;21997;-59
2023/05/03 15:18:13;;;;;;;2.40;1.10;;;;;;;23.94;25.49;101461.96;107818;1289;23626;-60
2023/05/03 15:20:38;;;;;;;3.00;1.20;;;;;;;23.82;25.81;101464.91;108005;1289;21989;-62
2023/05/03 15:23:04;;;;;;;3.40;0.80;;;;;;;23.63;26.32;101464.61;107987;1289;21991;-59
2023/05/03 15:25:31;;;;;;;2.70;1.10;;;;;;;23.46;26.40;101463.30;108006;1289;22070;-63
2023/05/03 15:27:57;;;;;;;2.70;1.10;;;;;;;23.25;26.46;101461.80;108055;1289;21984;-58
2023/05/03 15:30:23;;;;;;;7.10;1.80;;;;;;;23.03;26.41;101461.38;107913;1287;21998;-63
2023/05/03 15:32:50;;;;;;;3.20;1.10;;;;;;;22.93;26.65;101463.66;107976;1289;21991;-60
2023/05/03 15:35:15;;;;;;;2.70;1.20;;;;;;;22.86;26.79;101459.16;107872;1289;22002;-64
2023/05/03 15:37:41;;;;;;;3.80;1.20;;;;;;;22.78;26.89;101457.55;107913;1289;22696;-63
2023/05/03 15:40:08;;;;;;;4.60;1.30;;;;;;;22.73;27.05;101461.02;108008;1289;21987;-63
2023/05/03 15:42:37;;;;;;;3.80;1.60;;;;;;;22.72;27.20;101461.60;107972;1287;23714;-59
2023/05/03 15:45:04;;;;;;;8.70;2.10;;;;;;;22.61;27.73;101457.26;108005;1288;21986;-63
2023/05/03 15:47:31;;;;;;;3.50;1.80;;;;;;;22.54;28.02;101459.00;108001;1289;21992;-59
2023/05/03 15:49:57;;;;;;;5.20;2.30;;;;;;;22.51;28.32;101463.42;108044;1289;21987;-63
2023/05/03 15:52:23;;;;;;;3.00;1.70;;;;;;;22.40;28.66;101463.75;107992;1289;21990;-63
2023/05/03 15:54:48;;;;;;;4.10;2.10;;;;;;;22.28;28.80;101467.66;108005;1289;21992;-63
2023/05/03 15:57:14;;;;;;;4.30;1.70;;;;;;;22.19;29.33;101467.68;108021;1289;22268;-62
2023/05/03 15:59:40;;;;;;;6.70;1.80;;;;;;;22.07;29.69;101470.88;107817;1289;21989;-59
2023/05/03 16:02:07;;;;;;;2.70;1.40;;;;;;;21.96;29.87;101466.86;107852;1289;22176;-59
2023/05/03 16:04:35;;;;;;;3.90;1.50;;;;;;;21.89;29.91;101466.81;107983;1289;21977;-62
2023/05/03 16:07:03;;;;;;;;;;;;;;;21.82;30.13;101468.56;108015;1289;22018;-59
2023/05/03 16:09:29;;;;;;;5.10;1.10;;;;;;;21.78;29.99;101466.04;107879;1281;23066;-59
2023/05/03 16:11:59;;;;;;;5.30;1.60;;;;;;;21.75;29.88;101464.04;107951;1289;21992;-62
2023/05/03 16:14:25;;;;;;;5.70;1.60;;;;;;;21.68;30.04;101463.41;108019;1289;21990;-59
2023/05/03 16:16:51;;;;;;;8.20;3.50;;;;;;;21.64;30.29;101462.32;107982;1289;21987;-59
2023/05/03 16:19:17;;;;;;;33.40;12.70;;;;;;;21.62;30.40;101462.60;108108;1289;21992;-65
2023/05/03 16:21:42;;;;;;;61.60;23.20;;;;;;;21.60;30.39;101461.58;108016;1287;21985;-64
2023/05/03 16:24:09;;;;;;;46.70;18.70;;;;;;;21.60;30.39;101462.63;108023;1289;22000;-60
2023/05/03 16:26:35;;;;;;;14.40;5.90;;;;;;;21.61;30.38;101465.65;108033;1288;21989;-62
2023/05/03 16:29:02;;;;;;;5.10;2.50;;;;;;;21.56;30.56;101465.84;108017;1289;21994;-58
2023/05/03 16:31:29;;;;;;;5.40;2.00;;;;;;;21.52;30.61;101459.91;107886;1287;22000;-58
2023/05/03 16:33:54;;;;;;;2.50;1.30;;;;;;;21.45;30.86;101464.70;108060;1289;21995;-59
2023/05/03 16:36:20;;;;;;;3.70;2.00;;;;;;;21.36;30.84;101470.92;108024;1289;21992;-59
2023/05/03 16:38:46;;;;;;;5.90;2.00;;;;;;;21.27;31.30;101469.86;108014;1289;21994;-58
2023/05/03 16:41:12;;;;;;;5.00;1.90;;;;;;;21.18;31.07;101467.70;107961;1289;22024;-61
2023/05/03 16:43:38;;;;;;;5.60;2.50;;;;;;;21.12;31.10;101470.44;108051;1289;23723;-58
2023/05/03 16:46:04;;;;;;;4.50;2.50;;;;;;;21.05;31.04;101469.99;107985;1289;21987;-59
2023/05/03 16:48:31;;;;;;;6.30;1.80;;;;;;;20.95;31.23;101469.70;108025;1285;21998;-59
2023/05/03 16:50:57;;;;;;;3.30;1.70;;;;;;;20.84;31.51;101473.30;107964;1283;23052;-62
2023/05/03 16:53:26;;;;;;;8.10;2.00;;;;;;;20.68;31.60;101474.92;108038;1289;21995;-58
2023/05/03 16:55:53;;;;;;;3.30;1.60;;;;;;;20.52;31.75;101478.36;108175;1289;22001;-60
2023/05/03 16:58:20;;;;;;;5.80;2.00;;;;;;;20.35;31.82;101480.24;108044;1289;23791;-59
2023/05/03 17:00:46;;;;;;;6.10;2.00;;;;;;;20.19;32.14;101486.12;107917;1289;22000;-59
2023/05/03 17:03:12;;;;;;;5.80;2.00;;;;;;;20.01;32.15;101484.42;107953;1289;21986;-59
2023/05/03 17:05:38;;;;;;;4.40;1.60;;;;;;;19.86;32.26;101483.68;107742;1289;21991;-61
2023/05/03 17:08:07;;;;;;;4.80;1.80;;;;;;;19.75;32.54;101486.16;107762;1289;23612;-61
2023/05/03 17:10:34;;;;;;;3.30;1.80;;;;;;;19.61;32.75;101485.38;108002;1289;23654;-61
2023/05/03 17:12:59;;;;;;;4.90;2.60;;;;;;;19.45;32.69;101479.84;107949;1289;21987;-62
2023/05/03 17:15:26;;;;;;;6.10;3.00;;;;;;;19.35;32.89;101479.10;108000;1289;21993;-61
2023/05/03 17:17:52;;;;;;;7.20;4.50;;;;;;;19.26;33.00;101475.80;108036;1289;21992;-62
2023/05/03 17:20:18;;;;;;;18.60;12.40;;;;;;;19.14;33.18;101478.81;108071;1289;22030;-61
2023/05/03 17:22:44;;;;;;;20.90;13.50;;;;;;;19.04;33.14;101483.21;108104;1289;23325;-61
2023/05/03 17:25:10;;;;;;;12.50;7.70;;;;;;;18.98;33.22;101485.88;107941;1289;22457;-61
2023/05/03 17:27:38;;;;;;;8.60;4.60;;;;;;;18.92;33.08;101488.01;107746;1289;23666;-61
2023/05/03 17:30:06;;;;;;;12.10;5.20;;;;;;;18.87;33.24;101486.35;107774;1289;21992;-61